Airports Germany Cologne Bonn Airport

Cologne Bonn Airport (EDDK / CGN)

Facts about Cologne Bonn Airport

Name Cologne Bonn Airport
City Cologne
Country Germany
ICAO code EDDK
IATA code CGN
Elevation 92.0496 meters (302 feet)

Weather

METAR

Metar data retrieved Saturday, 20 July 2024 at 00:55 UTC (5 minutes ago)

EDDK 200020Z AUTO 06003KT CAVOK 17/16 Q1014 NOSIG

Live traffic

Navigraph Charts (account required)